createdAt,value
2022-10-13T00:00:46.804Z,1018.43
2022-10-13T00:01:46.714Z,1018.38
2022-10-13T00:02:46.688Z,1018.39
2022-10-13T00:03:46.682Z,1018.41
2022-10-13T00:04:46.671Z,1018.40
2022-10-13T00:05:46.657Z,1018.37
2022-10-13T00:06:46.645Z,1018.32
2022-10-13T00:07:46.638Z,1018.35
2022-10-13T00:08:46.621Z,1018.30
2022-10-13T00:09:46.610Z,1018.31
2022-10-13T00:10:46.600Z,1018.28
2022-10-13T00:11:46.587Z,1018.24
2022-10-13T00:12:46.576Z,1018.23
2022-10-13T00:13:46.580Z,1018.28
2022-10-13T00:14:46.554Z,1018.26
2022-10-13T00:15:46.546Z,1018.26
2022-10-13T00:16:46.548Z,1018.27
2022-10-13T00:17:46.521Z,1018.23
2022-10-13T00:18:46.510Z,1018.23
2022-10-13T00:19:46.528Z,1018.30
2022-10-13T00:20:46.486Z,1018.21
2022-10-13T00:21:46.476Z,1018.19
2022-10-13T00:22:46.464Z,1018.22
2022-10-13T00:23:46.452Z,1018.22
2022-10-13T00:24:46.441Z,1018.19
2022-10-13T00:25:46.451Z,1018.20
2022-10-13T00:26:46.419Z,1018.21
2022-10-13T00:27:46.407Z,1018.21
2022-10-13T00:28:51.999Z,1018.20
2022-10-13T00:29:47.382Z,1018.21
2022-10-13T00:30:46.373Z,1018.17
2022-10-13T00:31:46.382Z,1018.21
2022-10-13T00:32:46.371Z,1018.22
2022-10-13T00:33:46.339Z,1018.20
2022-10-13T00:34:46.328Z,1018.19
2022-10-13T00:35:46.318Z,1018.19
2022-10-13T00:36:46.316Z,1018.14
2022-10-13T00:37:46.299Z,1018.10
2022-10-13T00:38:46.282Z,1018.12
2022-10-13T00:39:46.272Z,1018.11
2022-10-13T00:40:46.260Z,1018.09
2022-10-13T00:41:46.248Z,1018.11
2022-10-13T00:42:46.237Z,1018.13
2022-10-13T00:43:46.256Z,1018.13
2022-10-13T00:44:46.214Z,1018.11
2022-10-13T00:45:46.204Z,1018.09
2022-10-13T00:46:46.194Z,1018.09
2022-10-13T00:47:46.181Z,1018.07
2022-10-13T00:48:46.299Z,1018.11
2022-10-13T00:49:46.164Z,1018.14
2022-10-13T00:50:46.148Z,1018.11
2022-10-13T00:51:46.138Z,1018.09
2022-10-13T00:52:46.133Z,1018.11
2022-10-13T00:53:46.112Z,1018.13
2022-10-13T00:54:46.106Z,1018.09
2022-10-13T00:55:46.097Z,1018.11
2022-10-13T00:56:46.083Z,1018.09
2022-10-13T00:57:46.068Z,1018.10
2022-10-13T00:58:46.059Z,1018.07
2022-10-13T00:59:46.046Z,1018.09
2022-10-13T01:00:46.094Z,1018.07
2022-10-13T01:01:46.044Z,1018.06
2022-10-13T01:02:46.012Z,1018.07
2022-10-13T01:03:46.004Z,1018.11
2022-10-13T01:04:46.008Z,1018.10
2022-10-13T01:05:45.978Z,1018.10
2022-10-13T01:06:45.968Z,1018.08
2022-10-13T01:07:45.962Z,1018.06
2022-10-13T01:08:45.944Z,1018.08
2022-10-13T01:09:45.933Z,1018.08
2022-10-13T01:10:45.921Z,1018.09
2022-10-13T01:11:45.910Z,1018.10
2022-10-13T01:12:45.899Z,1018.12
2022-10-13T01:13:45.895Z,1018.16
2022-10-13T01:14:45.878Z,1018.11
2022-10-13T01:15:45.865Z,1018.09
2022-10-13T01:16:45.854Z,1018.08
2022-10-13T01:17:45.842Z,1018.06
2022-10-13T01:18:45.831Z,1018.04
2022-10-13T01:19:45.850Z,1018.05
2022-10-13T01:20:45.826Z,1018.05
2022-10-13T01:21:45.798Z,1018.04
2022-10-13T01:22:45.789Z,1018.03
2022-10-13T01:23:45.776Z,1018.07
2022-10-13T01:24:45.764Z,1017.98
2022-10-13T01:25:45.759Z,1018.00
2022-10-13T01:26:45.742Z,1017.97
2022-10-13T01:27:45.730Z,1018.00
2022-10-13T01:28:45.766Z,1017.99
2022-10-13T01:29:45.707Z,1017.97
2022-10-13T01:30:45.696Z,1017.96
2022-10-13T01:31:45.718Z,1017.95
2022-10-13T01:32:45.674Z,1017.97
2022-10-13T01:33:45.661Z,1017.91
2022-10-13T01:34:45.652Z,1017.91
2022-10-13T01:35:45.640Z,1017.91
2022-10-13T01:36:45.645Z,1017.91
2022-10-13T01:37:45.637Z,1017.89
2022-10-13T01:38:45.607Z,1017.88
2022-10-13T01:39:45.595Z,1017.88
2022-10-13T01:40:45.583Z,1017.87
2022-10-13T01:41:45.572Z,1017.89
2022-10-13T01:42:45.562Z,1017.84
2022-10-13T01:43:45.556Z,1017.83
2022-10-13T01:44:45.539Z,1017.82
2022-10-13T01:45:45.529Z,1017.78
2022-10-13T01:46:45.516Z,1017.78
2022-10-13T01:47:45.505Z,1017.77
2022-10-13T01:48:45.496Z,1017.75
2022-10-13T01:49:45.491Z,1017.77
2022-10-13T01:50:45.472Z,1017.77
2022-10-13T01:51:45.463Z,1017.77
2022-10-13T01:52:45.465Z,1017.74
2022-10-13T01:53:45.446Z,1017.76
2022-10-13T01:54:45.425Z,1017.78
2022-10-13T01:55:45.445Z,1017.75
2022-10-13T01:56:45.403Z,1017.75
2022-10-13T01:57:45.395Z,1017.73
2022-10-13T01:58:45.380Z,1017.73
2022-10-13T01:59:45.371Z,1017.74
2022-10-13T02:00:45.383Z,1017.69
2022-10-13T02:01:45.362Z,1017.71
2022-10-13T02:02:45.336Z,1017.70
2022-10-13T02:03:45.324Z,1017.67
2022-10-13T02:04:45.313Z,1017.67
2022-10-13T02:05:45.303Z,1017.68
2022-10-13T02:06:45.290Z,1017.67
2022-10-13T02:07:45.299Z,1017.67
2022-10-13T02:08:45.283Z,1017.68
2022-10-13T02:09:45.257Z,1017.65
2022-10-13T02:10:45.245Z,1017.60
2022-10-13T02:11:45.235Z,1017.63
2022-10-13T02:12:45.223Z,1017.60
2022-10-13T02:13:45.218Z,1017.62
2022-10-13T02:14:45.201Z,1017.61
2022-10-13T02:15:45.189Z,1017.62
2022-10-13T02:16:45.177Z,1017.60
2022-10-13T02:17:45.166Z,1017.58
2022-10-13T02:18:45.154Z,1017.59
2022-10-13T02:19:45.150Z,1017.58
2022-10-13T02:20:45.133Z,1017.59
2022-10-13T02:21:45.121Z,1017.56
2022-10-13T02:22:45.109Z,1017.52
2022-10-13T02:23:45.099Z,1017.53
2022-10-13T02:24:45.105Z,1017.52
2022-10-13T02:25:45.083Z,1017.51
2022-10-13T02:26:45.065Z,1017.46
2022-10-13T02:27:45.052Z,1017.49
2022-10-13T02:28:45.077Z,1017.48
2022-10-13T02:29:45.034Z,1017.43
2022-10-13T02:30:45.023Z,1017.40
2022-10-13T02:31:45.013Z,1017.41
2022-10-13T02:32:44.997Z,1017.43
2022-10-13T02:33:44.985Z,1017.42
2022-10-13T02:34:44.978Z,1017.45
2022-10-13T02:35:44.967Z,1017.49
2022-10-13T02:36:44.951Z,1017.47
2022-10-13T02:37:44.962Z,1017.47
2022-10-13T02:38:44.928Z,1017.50
2022-10-13T02:39:44.919Z,1017.48
2022-10-13T02:40:44.923Z,1017.46
2022-10-13T02:41:44.898Z,1017.50
2022-10-13T02:42:44.883Z,1017.49
2022-10-13T02:43:44.893Z,1017.46
2022-10-13T02:44:44.861Z,1017.42
2022-10-13T02:45:44.851Z,1017.42
2022-10-13T02:46:44.838Z,1017.37
2022-10-13T02:47:44.827Z,1017.35
2022-10-13T02:48:44.815Z,1017.35
2022-10-13T02:49:44.810Z,1017.34
2022-10-13T02:50:44.793Z,1017.32
2022-10-13T02:51:44.783Z,1017.27
2022-10-13T02:52:44.771Z,1017.27
2022-10-13T02:53:44.764Z,1017.26
2022-10-13T02:54:44.750Z,1017.22
2022-10-13T02:55:44.745Z,1017.20
2022-10-13T02:56:44.744Z,1017.23
2022-10-13T02:57:44.715Z,1017.24
2022-10-13T02:58:44.703Z,1017.18
2022-10-13T02:59:44.693Z,1017.19
2022-10-13T03:00:44.710Z,1017.18
2022-10-13T03:01:44.701Z,1017.23
2022-10-13T03:02:44.658Z,1017.20
2022-10-13T03:03:44.647Z,1017.15
2022-10-13T03:04:44.637Z,1017.21
2022-10-13T03:05:44.625Z,1017.20
2022-10-13T03:06:44.614Z,1017.25
2022-10-13T03:07:44.609Z,1017.23
2022-10-13T03:08:44.592Z,1017.29
2022-10-13T03:09:44.580Z,1017.25
2022-10-13T03:10:44.568Z,1017.21
2022-10-13T03:11:44.558Z,1017.22
2022-10-13T03:12:44.563Z,1017.21
2022-10-13T03:13:44.550Z,1017.22
2022-10-13T03:14:44.524Z,1017.19
2022-10-13T03:15:44.513Z,1017.15
2022-10-13T03:16:44.501Z,1017.18
2022-10-13T03:17:44.490Z,1017.17
2022-10-13T03:18:44.479Z,1017.19
2022-10-13T03:19:44.489Z,1017.17
2022-10-13T03:20:44.456Z,1017.16
2022-10-13T03:21:44.446Z,1017.14
2022-10-13T03:22:48.815Z,1017.07
2022-10-13T03:23:45.420Z,1017.10
2022-10-13T03:24:44.410Z,1017.11
2022-10-13T03:25:44.405Z,1017.15
2022-10-13T03:26:44.388Z,1017.14
2022-10-13T03:27:44.377Z,1017.11
2022-10-13T03:28:44.468Z,1017.09
2022-10-13T03:29:44.355Z,1017.06
2022-10-13T03:30:44.347Z,1017.06
2022-10-13T03:31:44.338Z,1017.07
2022-10-13T03:32:44.320Z,1017.03
2022-10-13T03:33:44.312Z,1017.01
2022-10-13T03:34:44.299Z,1016.97
2022-10-13T03:35:44.287Z,1016.97
2022-10-13T03:36:44.275Z,1017.02
2022-10-13T03:37:44.341Z,1016.95
2022-10-13T03:38:44.253Z,1017.01
2022-10-13T03:39:44.241Z,1016.95
2022-10-13T03:40:44.231Z,1016.93
2022-10-13T03:41:44.219Z,1016.94
2022-10-13T03:42:44.208Z,1016.97
2022-10-13T03:43:44.203Z,1016.99
2022-10-13T03:44:44.284Z,1016.97
2022-10-13T03:45:44.174Z,1016.98
2022-10-13T03:46:44.163Z,1016.97
2022-10-13T03:47:44.153Z,1016.99
2022-10-13T03:48:44.140Z,1016.91
2022-10-13T03:49:44.147Z,1016.94
2022-10-13T03:50:44.118Z,1016.94
2022-10-13T03:51:44.106Z,1016.92
2022-10-13T03:52:44.095Z,1016.93
2022-10-13T03:53:44.083Z,1016.96
2022-10-13T03:54:44.071Z,1016.99
2022-10-13T03:55:44.082Z,1016.91
2022-10-13T03:56:44.050Z,1016.95
2022-10-13T03:57:44.038Z,1016.90
2022-10-13T03:58:44.029Z,1016.88
2022-10-13T03:59:44.015Z,1016.85
2022-10-13T04:00:44.022Z,1016.84
2022-10-13T04:01:44.037Z,1016.87
2022-10-13T04:02:43.983Z,1016.88
2022-10-13T04:03:43.971Z,1016.89
2022-10-13T04:04:43.960Z,1016.87
2022-10-13T04:05:43.948Z,1016.97
2022-10-13T04:06:43.941Z,1016.91
2022-10-13T04:07:43.934Z,1016.89
2022-10-13T04:08:43.916Z,1016.91
2022-10-13T04:09:43.903Z,1016.89
2022-10-13T04:10:43.892Z,1016.95
2022-10-13T04:11:43.880Z,1016.97
2022-10-13T04:12:43.869Z,1016.98
2022-10-13T04:13:43.888Z,1016.97
2022-10-13T04:14:43.847Z,1016.90
2022-10-13T04:15:43.836Z,1016.87
2022-10-13T04:16:43.843Z,1016.85
2022-10-13T04:17:43.813Z,1016.86
2022-10-13T04:18:45.013Z,1016.83
2022-10-13T04:19:43.797Z,1016.85
2022-10-13T04:20:43.779Z,1016.84
2022-10-13T04:21:43.768Z,1016.86
2022-10-13T04:22:43.756Z,1016.80
2022-10-13T04:23:43.747Z,1016.82
2022-10-13T04:24:43.734Z,1016.81
2022-10-13T04:25:43.733Z,1016.83
2022-10-13T04:26:43.711Z,1016.82
2022-10-13T04:27:43.701Z,1016.83
2022-10-13T04:28:43.725Z,1016.80
2022-10-13T04:29:43.682Z,1016.80
2022-10-13T04:30:48.478Z,1016.74
2022-10-13T04:31:44.680Z,1016.75
2022-10-13T04:32:43.661Z,1016.69
2022-10-13T04:33:43.633Z,1016.70
2022-10-13T04:34:43.630Z,1016.72
2022-10-13T04:35:43.610Z,1016.76
2022-10-13T04:36:43.599Z,1016.78
2022-10-13T04:37:45.196Z,1016.71
2022-10-13T04:38:43.577Z,1016.74
2022-10-13T04:39:43.568Z,1016.75
2022-10-13T04:40:43.554Z,1016.74
2022-10-13T04:41:43.543Z,1016.72
2022-10-13T04:42:43.531Z,1016.71
2022-10-13T04:43:43.541Z,1016.70
2022-10-13T04:44:43.508Z,1016.67
2022-10-13T04:45:43.499Z,1016.67
2022-10-13T04:46:43.486Z,1016.67
2022-10-13T04:47:43.475Z,1016.71
2022-10-13T04:48:43.481Z,1016.72
2022-10-13T04:49:43.484Z,1016.71
2022-10-13T04:50:43.441Z,1016.67
2022-10-13T04:51:43.429Z,1016.66
2022-10-13T04:52:43.419Z,1016.72
2022-10-13T04:53:43.408Z,1016.72
2022-10-13T04:54:43.397Z,1016.68
2022-10-13T04:55:43.401Z,1016.69
2022-10-13T04:56:43.374Z,1016.67
2022-10-13T04:57:43.363Z,1016.62
2022-10-13T04:58:43.352Z,1016.68
2022-10-13T04:59:43.339Z,1016.58
2022-10-13T05:00:43.352Z,1016.60
2022-10-13T05:01:43.323Z,1016.60
2022-10-13T05:02:43.306Z,1016.57
2022-10-13T05:03:43.295Z,1016.55
2022-10-13T05:04:43.300Z,1016.53
2022-10-13T05:05:43.272Z,1016.55
2022-10-13T05:07:12.395Z,1016.57
2022-10-13T05:07:44.270Z,1016.55
2022-10-13T05:08:43.238Z,1016.57
2022-10-13T05:09:43.227Z,1016.56
2022-10-13T05:10:43.216Z,1016.55
2022-10-13T05:11:43.205Z,1016.53
2022-10-13T05:12:43.193Z,1016.53
2022-10-13T05:13:43.188Z,1016.51
2022-10-13T05:14:43.171Z,1016.51
2022-10-13T05:15:43.161Z,1016.58
2022-10-13T05:16:43.148Z,1016.57
2022-10-13T05:17:43.137Z,1016.55
2022-10-13T05:18:43.125Z,1016.54
2022-10-13T05:19:43.121Z,1016.56
2022-10-13T05:20:43.119Z,1016.55
2022-10-13T05:21:43.091Z,1016.55
2022-10-13T05:22:43.080Z,1016.54
2022-10-13T05:23:43.069Z,1016.52
2022-10-13T05:24:43.061Z,1016.51
2022-10-13T05:25:43.076Z,1016.51
2022-10-13T05:26:43.035Z,1016.50
2022-10-13T05:27:43.046Z,1016.54
2022-10-13T05:28:43.073Z,1016.50
2022-10-13T05:29:43.001Z,1016.39
2022-10-13T05:30:42.990Z,1016.38
2022-10-13T05:31:42.996Z,1016.39
2022-10-13T05:32:42.970Z,1016.42
2022-10-13T05:33:42.958Z,1016.42
2022-10-13T05:34:42.945Z,1016.47
2022-10-13T05:35:42.935Z,1016.40
2022-10-13T05:36:43.013Z,1016.48
2022-10-13T05:37:42.919Z,1016.43
2022-10-13T05:38:42.901Z,1016.43
2022-10-13T05:39:42.889Z,1016.42
2022-10-13T05:40:42.878Z,1016.44
2022-10-13T05:41:42.868Z,1016.42
2022-10-13T05:42:42.856Z,1016.44
2022-10-13T05:43:42.865Z,1016.52
2022-10-13T05:44:42.833Z,1016.50
2022-10-13T05:45:42.822Z,1016.44
2022-10-13T05:46:42.811Z,1016.50
2022-10-13T05:47:42.799Z,1016.46
2022-10-13T05:48:42.791Z,1016.42
2022-10-13T05:49:42.804Z,1016.40
2022-10-13T05:50:42.766Z,1016.42
2022-10-13T05:51:42.755Z,1016.39
2022-10-13T05:52:42.760Z,1016.41
2022-10-13T05:53:48.168Z,1016.39
2022-10-13T05:54:43.724Z,1016.42
2022-10-13T05:55:42.709Z,1016.37
2022-10-13T05:56:42.699Z,1016.35
2022-10-13T05:57:42.686Z,1016.37
2022-10-13T05:58:42.675Z,1016.38
2022-10-13T05:59:42.664Z,1016.36
2022-10-13T06:00:42.658Z,1016.36
2022-10-13T06:01:42.725Z,1016.36
2022-10-13T06:02:42.631Z,1016.35
2022-10-13T06:03:42.619Z,1016.35
2022-10-13T06:04:42.628Z,1016.34
2022-10-13T06:05:42.597Z,1016.39
2022-10-13T06:06:42.596Z,1016.37
2022-10-13T06:07:42.577Z,1016.37
2022-10-13T06:08:42.578Z,1016.37
2022-10-13T06:09:42.550Z,1016.39
2022-10-13T06:10:42.539Z,1016.39
2022-10-13T06:11:42.530Z,1016.39
2022-10-13T06:12:42.525Z,1016.37
2022-10-13T06:13:42.506Z,1016.36
2022-10-13T06:14:42.497Z,1016.38
2022-10-13T06:15:42.483Z,1016.38
2022-10-13T06:16:42.471Z,1016.37
2022-10-13T06:17:42.462Z,1016.35
2022-10-13T06:18:42.457Z,1016.36
2022-10-13T06:19:42.440Z,1016.39
2022-10-13T06:20:42.429Z,1016.42
2022-10-13T06:21:42.417Z,1016.41
2022-10-13T06:22:42.404Z,1016.37
2022-10-13T06:23:42.394Z,1016.43
2022-10-13T06:24:42.461Z,1016.42
2022-10-13T06:25:42.373Z,1016.43
2022-10-13T06:26:42.360Z,1016.44
2022-10-13T06:27:42.370Z,1016.45
2022-10-13T06:28:46.260Z,1016.42
2022-10-13T06:29:43.333Z,1016.38
2022-10-13T06:30:42.316Z,1016.42
2022-10-13T06:31:42.303Z,1016.39
2022-10-13T06:32:42.292Z,1016.41
2022-10-13T06:33:42.280Z,1016.40
2022-10-13T06:34:42.270Z,1016.41
2022-10-13T06:35:42.265Z,1016.44
2022-10-13T06:36:42.246Z,1016.42
2022-10-13T06:37:42.235Z,1016.41
2022-10-13T06:38:42.224Z,1016.37
2022-10-13T06:39:42.226Z,1016.43
2022-10-13T06:40:42.230Z,1016.45
2022-10-13T06:41:42.197Z,1016.40
2022-10-13T06:42:42.181Z,1016.39
2022-10-13T06:43:42.168Z,1016.38
2022-10-13T06:44:42.158Z,1016.42
2022-10-13T06:45:42.145Z,1016.41
2022-10-13T06:46:42.133Z,1016.43
2022-10-13T06:47:42.131Z,1016.47
2022-10-13T06:48:42.111Z,1016.47
2022-10-13T06:49:42.101Z,1016.43
2022-10-13T06:50:42.986Z,1016.44
2022-10-13T06:51:42.079Z,1016.48
2022-10-13T06:52:42.068Z,1016.49
2022-10-13T06:53:42.080Z,1016.51
2022-10-13T06:54:42.046Z,1016.47
2022-10-13T06:55:42.033Z,1016.49
2022-10-13T06:56:42.039Z,1016.47
2022-10-13T06:57:42.011Z,1016.48
2022-10-13T06:58:42.000Z,1016.48
2022-10-13T06:59:42.012Z,1016.47
2022-10-13T07:00:42.016Z,1016.50
2022-10-13T07:01:42.790Z,1016.46
2022-10-13T07:02:41.952Z,1016.41
2022-10-13T07:03:41.942Z,1016.45
2022-10-13T07:04:41.932Z,1016.40
2022-10-13T07:05:41.928Z,1016.42
2022-10-13T07:06:41.910Z,1016.42
2022-10-13T07:07:41.900Z,1016.41
2022-10-13T07:08:41.887Z,1016.43
2022-10-13T07:09:41.876Z,1016.39
2022-10-13T07:10:41.866Z,1016.37
2022-10-13T07:11:41.858Z,1016.39
2022-10-13T07:12:41.862Z,1016.34
2022-10-13T07:13:45.332Z,1016.33
2022-10-13T07:14:43.864Z,1016.38
2022-10-13T07:15:41.811Z,1016.38
2022-10-13T07:16:41.797Z,1016.30
2022-10-13T07:17:41.796Z,1016.31
2022-10-13T07:18:41.773Z,1016.32
2022-10-13T07:19:41.764Z,1016.30
2022-10-13T07:20:41.751Z,1016.30
2022-10-13T07:21:41.741Z,1016.27
2022-10-13T07:22:41.730Z,1016.27
2022-10-13T07:23:41.727Z,1016.30
2022-10-13T07:24:41.710Z,1016.28
2022-10-13T07:25:41.698Z,1016.27
2022-10-13T07:26:41.684Z,1016.31
2022-10-13T07:27:41.679Z,1016.24
2022-10-13T07:28:41.727Z,1016.28
2022-10-13T07:29:41.666Z,1016.26
2022-10-13T07:30:41.641Z,1016.25
2022-10-13T07:31:41.628Z,1016.30
2022-10-13T07:32:41.617Z,1016.28
2022-10-13T07:33:41.613Z,1016.30
2022-10-13T07:34:41.596Z,1016.30
2022-10-13T07:35:41.588Z,1016.32
2022-10-13T07:36:41.572Z,1016.26
2022-10-13T07:37:41.562Z,1016.19
2022-10-13T07:38:41.549Z,1016.22
2022-10-13T07:39:41.541Z,1016.22
2022-10-13T07:40:41.529Z,1016.15
2022-10-13T07:41:41.525Z,1016.17
2022-10-13T07:42:41.503Z,1016.18
2022-10-13T07:43:41.497Z,1016.15
2022-10-13T07:44:41.578Z,1016.14
2022-10-13T07:45:41.471Z,1016.15
2022-10-13T07:46:41.460Z,1016.14
2022-10-13T07:47:41.454Z,1016.16
2022-10-13T07:48:41.437Z,1016.10
2022-10-13T07:49:41.425Z,1016.12
2022-10-13T07:50:41.414Z,1016.13
2022-10-13T07:51:41.402Z,1016.15
2022-10-13T07:52:41.391Z,1016.15
2022-10-13T07:53:41.391Z,1016.18
2022-10-13T07:54:41.369Z,1016.14
2022-10-13T07:55:41.357Z,1016.13
2022-10-13T07:56:41.345Z,1016.10
2022-10-13T07:57:41.335Z,1016.12
2022-10-13T07:58:41.324Z,1016.13
2022-10-13T07:59:41.335Z,1016.12
2022-10-13T08:00:41.319Z,1016.13
2022-10-13T08:01:41.380Z,1016.10
2022-10-13T08:02:41.278Z,1016.08
2022-10-13T08:03:44.134Z,1016.06
2022-10-13T08:04:42.262Z,1016.06
2022-10-13T08:05:41.245Z,1016.09
2022-10-13T08:07:41.223Z,1016.07
2022-10-13T08:08:41.210Z,1016.07
2022-10-13T08:09:41.199Z,1016.02
2022-10-13T08:10:41.217Z,1016.01
2022-10-13T08:11:41.180Z,1016.01
2022-10-13T08:12:41.165Z,1015.99
2022-10-13T08:13:41.155Z,1015.91
2022-10-13T08:14:41.202Z,1015.94
2022-10-13T08:15:41.132Z,1015.93
2022-10-13T08:16:41.147Z,1015.92
2022-10-13T08:17:41.110Z,1015.93
2022-10-13T08:18:41.101Z,1015.93
2022-10-13T08:19:41.091Z,1015.93
2022-10-13T08:20:43.339Z,1015.93
2022-10-13T08:22:42.060Z,1015.91
2022-10-13T08:23:41.041Z,1015.91
2022-10-13T08:24:41.030Z,1015.94
2022-10-13T08:25:41.023Z,1015.96
2022-10-13T08:26:41.008Z,1015.90
2022-10-13T08:27:50.186Z,1015.94
2022-10-13T08:28:48.663Z,1015.89
2022-10-13T08:29:42.010Z,1015.92
2022-10-13T08:30:41.170Z,1015.91
2022-10-13T08:31:41.198Z,1015.90
2022-10-13T08:32:41.014Z,1015.91
2022-10-13T08:33:40.930Z,1015.86
2022-10-13T08:34:40.923Z,1015.84
2022-10-13T08:35:40.907Z,1015.83
2022-10-13T08:36:40.895Z,1015.86
2022-10-13T08:37:40.886Z,1015.83
2022-10-13T08:38:40.873Z,1015.82
2022-10-13T08:39:40.862Z,1015.78
2022-10-13T08:40:40.856Z,1015.79
2022-10-13T08:41:40.841Z,1015.79
2022-10-13T08:42:40.828Z,1015.77
2022-10-13T08:43:54.928Z,1015.77
2022-10-13T08:45:10.858Z,1015.78
2022-10-13T08:45:42.423Z,1015.77
2022-10-13T08:46:40.784Z,1015.77
2022-10-13T08:47:40.772Z,1015.76
2022-10-13T08:48:40.800Z,1015.73
2022-10-13T08:49:41.142Z,1015.73
2022-10-13T08:50:40.737Z,1015.69
2022-10-13T08:51:40.732Z,1015.71
2022-10-13T08:52:40.716Z,1015.72
2022-10-13T08:53:40.704Z,1015.73
2022-10-13T08:54:40.692Z,1015.72
2022-10-13T08:55:40.681Z,1015.76
2022-10-13T08:56:40.672Z,1015.75
2022-10-13T08:57:40.664Z,1015.76
2022-10-13T08:58:40.648Z,1015.68
2022-10-13T08:59:40.643Z,1015.72
2022-10-13T09:00:40.626Z,1015.74
2022-10-13T09:01:40.647Z,1015.74
2022-10-13T09:02:40.608Z,1015.75
2022-10-13T09:03:40.617Z,1015.77
2022-10-13T09:04:40.596Z,1015.72
2022-10-13T09:05:40.568Z,1015.73
2022-10-13T09:06:40.559Z,1015.72
2022-10-13T09:07:40.633Z,1015.72
2022-10-13T09:08:40.535Z,1015.75
2022-10-13T09:09:40.544Z,1015.75
2022-10-13T09:10:40.513Z,1015.75
2022-10-13T09:11:40.500Z,1015.71
2022-10-13T09:12:40.491Z,1015.73
2022-10-13T09:13:40.478Z,1015.71
2022-10-13T09:14:40.469Z,1015.65
2022-10-13T09:15:40.463Z,1015.69
2022-10-13T09:16:40.450Z,1015.67
2022-10-13T09:17:40.435Z,1015.65
2022-10-13T09:18:40.425Z,1015.61
2022-10-13T09:19:40.414Z,1015.61
2022-10-13T09:20:40.507Z,1015.58
2022-10-13T09:21:40.394Z,1015.59
2022-10-13T09:22:40.376Z,1015.61
2022-10-13T09:23:42.000Z,1015.62
2022-10-13T09:24:40.356Z,1015.58
2022-10-13T09:25:40.349Z,1015.61
2022-10-13T09:26:40.333Z,1015.59
2022-10-13T09:27:40.328Z,1015.60
2022-10-13T09:28:40.374Z,1015.60
2022-10-13T09:29:40.298Z,1015.57
2022-10-13T09:30:40.301Z,1015.55
2022-10-13T09:31:40.276Z,1015.54
2022-10-13T09:32:40.265Z,1015.56
2022-10-13T09:33:40.260Z,1015.57
2022-10-13T09:34:40.250Z,1015.55
2022-10-13T09:35:40.231Z,1015.53
2022-10-13T09:36:40.237Z,1015.55
2022-10-13T09:37:40.209Z,1015.56
2022-10-13T09:38:40.199Z,1015.53
2022-10-13T09:39:40.193Z,1015.53
2022-10-13T09:40:40.243Z,1015.53
2022-10-13T09:41:40.164Z,1015.49
2022-10-13T09:42:40.152Z,1015.50
2022-10-13T09:43:40.143Z,1015.46
2022-10-13T09:44:40.130Z,1015.46
2022-10-13T09:45:40.124Z,1015.46
2022-10-13T09:46:40.109Z,1015.46
2022-10-13T09:47:40.096Z,1015.50
2022-10-13T09:48:40.086Z,1015.47
2022-10-13T09:49:40.074Z,1015.49
2022-10-13T09:50:40.062Z,1015.48
2022-10-13T09:51:40.057Z,1015.46
2022-10-13T09:52:40.073Z,1015.45
2022-10-13T09:53:40.028Z,1015.49
2022-10-13T09:54:40.017Z,1015.47
2022-10-13T09:55:40.007Z,1015.50
2022-10-13T09:56:39.995Z,1015.48
2022-10-13T09:57:39.989Z,1015.47
2022-10-13T09:58:40.002Z,1015.48
2022-10-13T09:59:39.962Z,1015.47
2022-10-13T10:00:39.951Z,1015.47
2022-10-13T10:01:39.939Z,1015.50
2022-10-13T10:02:39.928Z,1015.50
2022-10-13T10:03:39.975Z,1015.51
2022-10-13T10:04:39.905Z,1015.48
2022-10-13T10:05:39.893Z,1015.49
2022-10-13T10:06:39.883Z,1015.51
2022-10-13T10:07:39.873Z,1015.53
2022-10-13T10:09:01.389Z,1015.49
2022-10-13T10:09:40.869Z,1015.56
2022-10-13T10:10:39.837Z,1015.55
2022-10-13T10:11:39.825Z,1015.53
2022-10-13T10:12:39.815Z,1015.57
2022-10-13T10:13:39.804Z,1015.55
2022-10-13T10:14:39.792Z,1015.52
2022-10-13T10:15:39.817Z,1015.52
2022-10-13T10:16:39.769Z,1015.52
2022-10-13T10:17:39.762Z,1015.51
2022-10-13T10:18:39.747Z,1015.50
2022-10-13T10:19:39.735Z,1015.51
2022-10-13T10:20:39.727Z,1015.49
2022-10-13T10:21:39.718Z,1015.53
2022-10-13T10:22:39.708Z,1015.49
2022-10-13T10:23:39.690Z,1015.52
2022-10-13T10:24:39.747Z,1015.51
2022-10-13T10:25:39.668Z,1015.52
2022-10-13T10:26:39.661Z,1015.50
2022-10-13T10:27:42.860Z,1015.54
2022-10-13T10:28:39.776Z,1015.49
2022-10-13T10:29:39.623Z,1015.49
2022-10-13T10:30:39.612Z,1015.43
2022-10-13T10:31:39.600Z,1015.40
2022-10-13T10:32:39.589Z,1015.36
2022-10-13T10:33:39.584Z,1015.41
2022-10-13T10:34:39.566Z,1015.34
2022-10-13T10:35:39.555Z,1015.34
2022-10-13T10:36:39.545Z,1015.35
2022-10-13T10:37:39.533Z,1015.36
2022-10-13T10:38:39.523Z,1015.30
2022-10-13T10:39:39.518Z,1015.28
2022-10-13T10:40:39.517Z,1015.29
2022-10-13T10:41:39.488Z,1015.27
2022-10-13T10:42:39.476Z,1015.25
2022-10-13T10:43:39.469Z,1015.32
2022-10-13T10:44:39.621Z,1015.23
2022-10-13T10:45:39.468Z,1015.21
2022-10-13T10:46:39.432Z,1015.20
2022-10-13T10:47:39.420Z,1015.20
2022-10-13T10:48:39.410Z,1015.22
2022-10-13T10:49:39.399Z,1015.21
2022-10-13T10:50:39.388Z,1015.20
2022-10-13T10:51:39.381Z,1015.19
2022-10-13T10:52:39.364Z,1015.19
2022-10-13T10:53:39.354Z,1015.17
2022-10-13T10:54:39.342Z,1015.16
2022-10-13T10:55:39.332Z,1015.15
2022-10-13T10:56:39.349Z,1015.15
2022-10-13T10:57:39.315Z,1015.15
2022-10-13T10:58:39.296Z,1015.11
2022-10-13T10:59:39.287Z,1015.10
2022-10-13T11:00:39.277Z,1015.06
2022-10-13T11:01:39.319Z,1015.02
2022-10-13T11:02:39.252Z,1015.03
2022-10-13T11:03:39.249Z,1015.04
2022-10-13T11:04:39.228Z,1015.02
2022-10-13T11:05:39.219Z,1015.02
2022-10-13T11:06:39.207Z,1015.01
2022-10-13T11:07:39.197Z,1015.03
2022-10-13T11:08:39.185Z,1014.99
2022-10-13T11:09:39.190Z,1014.94
2022-10-13T11:10:39.162Z,1014.92
2022-10-13T11:11:39.151Z,1014.89
2022-10-13T11:12:39.160Z,1014.89
2022-10-13T11:13:39.129Z,1014.88
2022-10-13T11:14:39.117Z,1014.83
2022-10-13T11:15:39.112Z,1014.87
2022-10-13T11:16:39.095Z,1014.85
2022-10-13T11:17:39.088Z,1014.88
2022-10-13T11:18:39.072Z,1014.87
2022-10-13T11:19:39.063Z,1014.85
2022-10-13T11:20:39.050Z,1014.84
2022-10-13T11:21:39.046Z,1014.79
2022-10-13T11:22:39.030Z,1014.82
2022-10-13T11:23:39.020Z,1014.79
2022-10-13T11:24:39.014Z,1014.77
2022-10-13T11:25:38.995Z,1014.75
2022-10-13T11:26:38.983Z,1014.75
2022-10-13T11:27:38.977Z,1014.75
2022-10-13T11:28:39.027Z,1014.78
2022-10-13T11:29:38.949Z,1014.80
2022-10-13T11:30:38.939Z,1014.76
2022-10-13T11:31:38.929Z,1014.81
2022-10-13T11:32:38.921Z,1014.77
2022-10-13T11:33:38.914Z,1014.74
2022-10-13T11:34:38.892Z,1014.74
2022-10-13T11:35:38.884Z,1014.75
2022-10-13T11:36:38.870Z,1014.75
2022-10-13T11:37:38.859Z,1014.70
2022-10-13T11:38:38.848Z,1014.68
2022-10-13T11:39:38.844Z,1014.70
2022-10-13T11:40:38.830Z,1014.68
2022-10-13T11:41:38.814Z,1014.67
2022-10-13T11:42:38.804Z,1014.64
2022-10-13T11:43:38.791Z,1014.66
2022-10-13T11:44:38.799Z,1014.62
2022-10-13T11:45:38.785Z,1014.56
2022-10-13T11:46:38.757Z,1014.59
2022-10-13T11:47:38.753Z,1014.61
2022-10-13T11:48:38.736Z,1014.57
2022-10-13T11:49:38.725Z,1014.60
2022-10-13T11:50:38.713Z,1014.55
2022-10-13T11:51:38.717Z,1014.52
2022-10-13T11:52:38.696Z,1014.55
2022-10-13T11:53:38.683Z,1014.55
2022-10-13T11:54:38.672Z,1014.55
2022-10-13T11:55:38.657Z,1014.54
2022-10-13T11:56:39.753Z,1014.48
2022-10-13T11:57:38.652Z,1014.52
2022-10-13T11:58:38.629Z,1014.49
2022-10-13T11:59:38.623Z,1014.49
2022-10-13T12:00:38.619Z,1014.50
2022-10-13T12:01:38.591Z,1014.41
2022-10-13T12:02:38.609Z,1014.39
2022-10-13T12:03:38.574Z,1014.38
2022-10-13T12:04:41.559Z,1014.40
2022-10-13T12:05:39.557Z,1014.38
2022-10-13T12:06:38.533Z,1014.32
2022-10-13T12:07:38.523Z,1014.30